Time;durP1;ratioP1;P1;durP2;ratioP2;P2;SDS_P1;SDS_P2;PMS_P1;PMS_P2;Temp;Humidity;BMP_temperature;BMP_pressure;BME280_temperature;BME280_humidity;BME280_pressure;Samples;Min_cycle;Max_cycle;Signal;HPM_P1;HPM_P2
2022/08/12 00:44:23;;;;;;;3.42;2.50;;;;;;;20.81;56.55;94011.22;5065705;28;20031;-76
2022/08/12 00:46:55;;;;;;;3.78;2.33;;;;;;;20.84;56.34;94008.53;5065612;28;20074;-76
2022/08/12 00:49:22;;;;;;;6.90;2.58;;;;;;;20.86;56.69;94008.13;5065466;28;20104;-76
2022/08/12 00:52:06;;;;;;;4.20;2.53;;;;;;;20.84;56.75;94002.31;5065648;28;20208;-76
2022/08/12 00:54:56;;;;;;;6.15;2.70;;;;;;;20.81;56.88;94005.78;5065460;28;20055;-76
2022/08/12 00:57:24;;;;;;;4.40;2.67;;;;;;;20.77;56.50;94007.69;5064087;28;20256;-76
2022/08/12 00:59:56;;;;;;;3.50;2.50;;;;;;;20.74;56.50;94013.84;5065357;28;20017;-76
2022/08/12 01:02:22;;;;;;;9.07;2.80;;;;;;;20.70;56.88;94007.63;5065425;28;20032;-76
2022/08/12 01:13:06;;;;;;;6.72;3.00;;;;;;;20.44;57.73;94029.03;5065098;28;20083;-75
2022/08/12 01:15:32;;;;;;;6.53;3.08;;;;;;;20.38;57.90;94027.78;5064887;28;20048;-75
2022/08/12 01:17:58;;;;;;;6.72;3.00;;;;;;;20.32;58.25;94026.56;5065118;28;20025;-75
2022/08/12 01:20:51;;;;;;;5.20;3.05;;;;;;;20.30;57.97;94019.97;5064890;28;20043;-75
2022/08/12 01:23:44;;;;;;;4.95;2.90;;;;;;;20.25;58.04;94031.91;5061074;28;20063;-75
2022/08/12 01:26:15;;;;;;;5.35;3.20;;;;;;;20.16;58.32;94037.59;5064818;28;20100;-75
2022/08/12 01:28:43;;;;;;;6.72;3.00;;;;;;;20.00;58.50;94034.31;5064920;28;20095;-76
2022/08/12 01:31:10;;;;;;;9.07;3.28;;;;;;;20.01;59.04;94030.50;5064782;28;20017;-75
2022/08/12 01:33:42;;;;;;;7.15;3.42;;;;;;;20.00;59.12;94037.03;5064631;28;20016;-75
2022/08/12 01:36:09;;;;;;;5.43;2.75;;;;;;;19.90;59.30;94029.56;5064874;28;20055;-75
2022/08/12 01:38:36;;;;;;;4.82;3.38;;;;;;;19.88;59.54;94034.56;5064636;28;20047;-75
2022/08/12 01:41:03;;;;;;;7.57;3.15;;;;;;;19.88;59.22;94034.56;5064688;28;20096;-75
2022/08/12 01:43:30;;;;;;;5.95;3.28;;;;;;;19.79;60.09;94029.44;5064828;28;20255;-75
2022/08/12 01:46:07;;;;;;;6.78;3.22;;;;;;;19.83;60.51;94024.84;5064608;28;20017;-75
2022/08/12 01:48:42;;;;;;;4.32;3.10;;;;;;;19.84;60.53;94031.81;5064773;28;20025;-75
2022/08/12 01:51:41;;;;;;;5.65;3.28;;;;;;;19.88;60.29;94023.75;5064377;28;20091;-75
2022/08/12 01:54:18;;;;;;;6.35;3.33;;;;;;;19.90;60.16;94022.22;5064406;28;20223;-75
2022/08/12 01:57:12;;;;;;;7.07;2.80;;;;;;;19.93;60.04;94026.16;5064406;28;20020;-75
2022/08/12 01:59:59;;;;;;;6.03;3.53;;;;;;;19.94;60.03;94014.94;5064259;28;20021;-75
2022/08/12 02:02:31;;;;;;;5.60;3.05;;;;;;;19.96;60.12;94019.97;5064324;28;20262;-75
2022/08/12 02:11:47;;;;;;;5.53;3.50;;;;;;;19.97;59.41;94003.38;5064177;28;20039;-75
2022/08/12 02:14:34;;;;;;;9.25;3.60;;;;;;;19.97;59.57;94013.44;5064083;28;20016;-75
2022/08/12 02:17:12;;;;;;;9.23;3.35;;;;;;;20.03;60.31;94018.16;5063880;28;20242;-75
2022/08/12 02:19:55;;;;;;;6.85;3.42;;;;;;;20.11;60.63;94024.41;5063774;28;20240;-75
2022/08/12 02:22:21;;;;;;;5.72;3.60;;;;;;;20.16;60.63;94010.56;5063679;28;20021;-75
2022/08/12 02:24:48;;;;;;;9.93;3.67;;;;;;;20.22;60.17;94013.72;5063829;28;20070;-75
2022/08/12 02:27:17;;;;;;;5.32;3.40;;;;;;;20.27;60.00;94018.00;5062440;28;20227;-75
2022/08/12 02:29:43;;;;;;;4.78;3.35;;;;;;;20.30;60.10;94014.56;5063607;28;20219;-75
2022/08/12 02:32:09;;;;;;;3.67;3.00;;;;;;;20.30;60.25;94018.03;5062481;28;20044;-75
2022/08/12 02:34:36;;;;;;;4.38;3.00;;;;;;;20.36;60.29;94018.50;5063705;28;20025;-75
2022/08/12 02:37:02;;;;;;;4.75;3.55;;;;;;;20.38;59.70;94016.19;5063677;28;20032;-75
2022/08/12 02:39:32;;;;;;;6.75;3.55;;;;;;;20.41;59.77;94013.53;5063429;28;20028;-75
2022/08/12 02:42:00;;;;;;;6.40;3.15;;;;;;;20.45;59.78;94016.25;5063549;28;20060;-75
2022/08/12 02:44:29;;;;;;;8.13;3.92;;;;;;;20.47;59.43;94024.78;5063575;28;20219;-75
2022/08/12 02:46:59;;;;;;;5.35;4.07;;;;;;;20.53;59.50;94015.19;5063286;28;20161;-75
2022/08/12 02:49:33;;;;;;;11.32;3.88;;;;;;;20.58;59.64;94017.59;5063436;28;20154;-75
2022/08/12 02:51:59;;;;;;;6.40;3.60;;;;;;;20.57;59.37;94018.69;5063087;28;20074;-75
2022/08/12 02:54:25;;;;;;;5.60;3.60;;;;;;;20.59;59.29;94013.72;5063305;28;20096;-75
2022/08/12 02:56:53;;;;;;;8.82;4.78;;;;;;;20.59;59.43;94016.41;5063150;28;20363;-75
2022/08/12 02:59:22;;;;;;;4.80;3.45;;;;;;;20.60;59.04;94012.56;5063178;28;20025;-75
2022/08/12 03:01:53;;;;;;;5.20;3.85;;;;;;;20.62;59.52;94014.91;5063065;28;20082;-75
2022/08/12 03:04:25;;;;;;;5.05;3.40;;;;;;;20.64;59.25;94023.44;5063158;28;20021;-75
2022/08/12 03:07:19;;;;;;;8.18;3.90;;;;;;;20.61;59.50;94010.63;5063063;28;20021;-75
2022/08/12 03:09:49;;;;;;;8.02;3.95;;;;;;;20.63;59.33;94019.16;5062040;28;20135;-75
2022/08/12 03:12:17;;;;;;;4.97;3.90;;;;;;;20.62;59.17;94023.03;5062972;28;20017;-75
2022/08/12 03:14:42;;;;;;;5.78;3.55;;;;;;;20.59;59.12;94016.41;5061658;28;20025;-75
2022/08/12 03:17:35;;;;;;;6.88;4.15;;;;;;;20.58;59.18;94025.72;5062621;28;20044;-75
2022/08/12 03:20:05;;;;;;;6.32;4.13;;;;;;;20.60;58.98;94019.94;5062499;28;20223;-75
2022/08/12 03:22:33;;;;;;;6.93;4.35;;;;;;;20.62;58.40;94031.16;5062788;28;20222;-75
2022/08/12 03:25:04;;;;;;;7.82;4.25;;;;;;;20.63;58.13;94022.66;5062708;28;20020;-75
2022/08/12 03:27:30;;;;;;;8.38;4.13;;;;;;;20.68;58.44;94020.75;5062667;28;20070;-75
2022/08/12 03:29:57;;;;;;;8.20;4.05;;;;;;;20.71;58.90;94025.44;5062731;28;20070;-75
2022/08/12 03:32:24;;;;;;;6.30;3.78;;;;;;;20.73;60.22;94033.97;5062587;28;20028;-75
2022/08/12 03:34:50;;;;;;;7.80;4.45;;;;;;;20.71;60.44;94034.34;5062278;28;20353;-75
2022/08/12 03:37:19;;;;;;;6.65;4.90;;;;;;;20.70;61.17;94037.41;5062625;28;20032;-76
2022/08/12 03:39:46;;;;;;;5.90;4.25;;;;;;;20.68;61.94;94034.28;5062660;28;20040;-75
2022/08/12 03:42:21;;;;;;;7.97;4.97;;;;;;;20.67;62.41;94038.16;5062294;28;20032;-76
2022/08/12 04:01:37;;;;;;;11.70;5.65;;;;;;;20.39;64.05;94045.59;5062684;28;20032;-76
2022/08/12 04:04:03;;;;;;;10.00;5.45;;;;;;;20.39;64.55;94040.19;5062591;28;20029;-75
2022/08/12 04:06:29;;;;;;;7.55;4.93;;;;;;;20.38;65.12;94037.84;5062236;28;20231;-75
2022/08/12 04:08:57;;;;;;;11.00;4.70;;;;;;;20.29;65.64;94031.94;5062309;28;20021;-75
2022/08/12 04:14:18;;;;;;;9.68;5.18;;;;;;;20.13;67.65;94027.53;5062265;28;20075;-75
2022/08/12 04:16:45;;;;;;;10.93;4.72;;;;;;;20.08;67.85;94030.56;5062057;28;20158;-75
2022/08/12 04:19:12;;;;;;;9.05;5.18;;;;;;;20.08;68.09;94030.56;5062025;28;20029;-75
2022/08/12 04:21:38;;;;;;;9.43;4.68;;;;;;;20.03;68.38;94041.72;5062060;28;20055;-75
2022/08/12 04:24:05;;;;;;;12.82;5.10;;;;;;;20.01;69.33;94035.91;5062408;28;20033;-75
2022/08/12 04:26:31;;;;;;;9.02;5.43;;;;;;;19.96;70.26;94036.22;5061977;28;20021;-75
2022/08/12 04:28:58;;;;;;;9.05;4.63;;;;;;;19.90;69.78;94040.38;5062071;28;20024;-75
2022/08/12 04:31:36;;;;;;;8.52;5.75;;;;;;;19.86;70.19;94036.84;5062940;28;20017;-75
2022/08/12 04:34:03;;;;;;;7.55;5.05;;;;;;;19.84;70.45;94051.53;5065859;28;20028;-75
2022/08/12 04:36:30;;;;;;;9.20;4.75;;;;;;;19.74;70.46;94041.38;5065674;28;20074;-75
2022/08/12 04:38:57;;;;;;;11.20;5.65;;;;;;;19.73;70.23;94026.28;5065759;28;20036;-75
2022/08/12 04:41:23;;;;;;;8.73;4.78;;;;;;;19.75;70.08;94036.72;5065698;28;20032;-75
2022/08/12 04:43:49;;;;;;;10.48;5.10;;;;;;;19.71;70.21;94042.09;5065630;28;20093;-75
2022/08/12 04:46:15;;;;;;;7.18;4.50;;;;;;;19.68;70.16;94037.38;5065567;28;20250;-75
2022/08/12 04:48:41;;;;;;;5.43;4.22;;;;;;;19.68;70.16;94029.25;5065471;28;20021;-75
2022/08/12 04:51:07;;;;;;;7.95;4.85;;;;;;;19.70;70.62;94032.41;5065749;28;20039;-75
2022/08/12 04:53:33;;;;;;;7.57;4.45;;;;;;;19.72;70.63;94026.63;5065278;28;20070;-75
2022/08/12 04:55:59;;;;;;;12.63;6.03;;;;;;;19.75;70.28;94023.22;5065499;28;20036;-75
2022/08/12 04:58:26;;;;;;;6.80;4.93;;;;;;;19.76;69.66;94033.66;5065164;28;20017;-75
2022/08/12 05:00:52;;;;;;;9.15;5.07;;;;;;;19.79;70.75;94032.16;5065149;28;20021;-75
2022/08/12 05:03:17;;;;;;;10.27;6.90;;;;;;;19.77;71.01;94027.09;5065259;28;20063;-75
2022/08/12 05:05:43;;;;;;;7.82;5.82;;;;;;;19.78;71.55;94025.97;5065325;28;20074;-75
2022/08/12 05:08:16;;;;;;;10.07;5.88;;;;;;;19.77;71.57;94026.31;5065258;28;20105;-75
2022/08/12 05:10:44;;;;;;;9.82;6.13;;;;;;;19.77;71.98;94032.50;5065081;28;20021;-74
2022/08/12 05:13:13;;;;;;;13.50;8.98;;;;;;;19.68;71.69;94031.19;5065078;28;20021;-75
2022/08/12 05:15:40;;;;;;;20.00;11.90;;;;;;;19.60;72.57;94030.31;5064916;28;20051;-75
2022/08/12 05:18:05;;;;;;;14.40;9.13;;;;;;;19.54;71.77;94034.47;5064924;28;20032;-76
2022/08/12 05:20:31;;;;;;;11.80;8.80;;;;;;;19.47;72.49;94037.88;5065015;28;20025;-75
2022/08/12 05:23:07;;;;;;;14.55;8.43;;;;;;;19.38;73.38;94040.84;5064927;28;20215;-75
2022/08/12 05:25:33;;;;;;;14.73;9.10;;;;;;;19.36;73.67;94045.84;5064702;28;20025;-75
2022/08/12 05:27:59;;;;;;;14.95;8.15;;;;;;;19.32;73.91;94050.41;5064928;28;20017;-75
2022/08/12 05:30:29;;;;;;;11.48;8.25;;;;;;;19.29;74.10;94051.13;5064626;28;20029;-75
2022/08/12 05:32:56;;;;;;;12.43;7.15;;;;;;;19.33;75.18;94054.66;5064709;28;20266;-75
2022/08/12 05:35:22;;;;;;;13.40;8.27;;;;;;;19.39;73.40;94045.09;5064778;28;20210;-75
2022/08/12 05:37:48;;;;;;;12.38;7.68;;;;;;;19.42;73.61;94051.72;5064357;28;20048;-75
2022/08/12 05:40:13;;;;;;;11.77;7.70;;;;;;;19.51;73.59;94059.53;5064460;28;20021;-74
2022/08/12 05:42:39;;;;;;;12.20;7.15;;;;;;;19.57;73.92;94052.69;5064498;28;20029;-75
2022/08/12 05:45:05;;;;;;;15.75;7.90;;;;;;;19.66;73.86;94053.19;5064161;28;20328;-75
2022/08/12 05:47:31;;;;;;;13.10;7.20;;;;;;;19.70;72.39;94051.34;5064303;28;20110;-75
2022/08/12 05:49:58;;;;;;;10.20;6.80;;;;;;;19.80;72.49;94056.13;5064097;28;20021;-75
2022/08/12 05:52:24;;;;;;;13.10;7.70;;;;;;;19.92;72.77;94059.72;5064440;28;20099;-75
2022/08/12 05:54:50;;;;;;;9.27;7.13;;;;;;;19.96;71.93;94061.31;5064281;28;20028;-75
2022/08/12 05:57:16;;;;;;;13.90;7.22;;;;;;;20.06;71.68;94051.78;5064124;28;20319;-75
2022/08/12 05:59:41;;;;;;;14.13;7.80;;;;;;;20.20;71.52;94049.25;5064209;28;20028;-75
2022/08/12 06:02:10;;;;;;;11.63;7.78;;;;;;;20.29;71.36;94056.31;5064253;28;20025;-75
2022/08/12 06:04:37;;;;;;;13.07;7.38;;;;;;;20.34;70.70;94053.28;5064197;28;20020;-75
2022/08/12 06:07:06;;;;;;;10.90;6.72;;;;;;;20.35;70.61;94052.91;5064086;28;20096;-75
2022/08/12 06:09:32;;;;;;;12.32;7.85;;;;;;;20.44;70.94;94047.19;5064028;28;20041;-75
2022/08/12 06:11:57;;;;;;;13.63;6.72;;;;;;;20.55;70.54;94048.06;5064050;28;20330;-76
2022/08/12 06:14:23;;;;;;;15.35;7.43;;;;;;;20.68;69.47;94051.34;5063840;28;20021;-75
2022/08/12 06:16:50;;;;;;;13.07;7.65;;;;;;;20.72;69.15;94051.34;5063665;28;20053;-75
2022/08/12 06:19:16;;;;;;;12.07;8.25;;;;;;;20.76;69.21;94060.28;5063868;28;20091;-75
2022/08/12 06:21:41;;;;;;;10.50;7.15;;;;;;;20.74;69.44;94054.47;5063655;28;20035;-75
2022/08/12 06:24:07;;;;;;;9.90;6.90;;;;;;;20.82;69.84;94054.19;5064021;28;20126;-75
2022/08/12 06:26:33;;;;;;;9.75;6.60;;;;;;;20.85;69.31;94058.06;5063760;28;20066;-75
2022/08/12 06:28:59;;;;;;;17.92;7.10;;;;;;;20.99;69.43;94058.19;5063682;28;20021;-75
2022/08/12 06:31:25;;;;;;;12.05;7.20;;;;;;;21.12;68.54;94055.19;5063623;28;20025;-75
2022/08/12 06:33:52;;;;;;;16.67;8.23;;;;;;;21.17;68.54;94060.28;5063545;28;20338;-75
2022/08/12 06:36:21;;;;;;;17.13;7.38;;;;;;;21.27;68.78;94059.56;5063624;28;20315;-75
2022/08/12 06:38:47;;;;;;;12.07;7.65;;;;;;;21.34;68.68;94059.63;5063461;28;20029;-75
2022/08/12 06:43:59;;;;;;;10.70;6.47;;;;;;;21.62;68.45;94063.72;5063454;28;20035;-75
2022/08/12 06:46:27;;;;;;;11.27;4.90;;;;;;;21.72;67.70;94052.16;5063057;28;20299;-75
2022/08/12 06:48:57;;;;;;;14.57;5.50;;;;;;;21.81;67.62;94052.56;5063434;28;20088;-75
2022/08/12 06:51:28;;;;;;;15.55;6.30;;;;;;;21.90;67.71;94052.25;5062993;28;20024;-75
2022/08/12 06:53:54;;;;;;;9.00;5.28;;;;;;;21.96;67.80;94049.94;5062929;28;20366;-75
2022/08/12 06:56:20;;;;;;;13.95;5.97;;;;;;;22.00;67.57;94046.09;5062154;28;20028;-75
2022/08/12 06:58:46;;;;;;;14.25;6.05;;;;;;;22.11;67.12;94046.13;5063021;28;20032;-75
2022/08/12 07:01:11;;;;;;;7.55;4.93;;;;;;;22.21;66.59;94045.38;5063098;28;20021;-75
2022/08/12 07:03:37;;;;;;;10.68;4.97;;;;;;;22.24;66.67;94041.91;5063256;28;20024;-75
2022/08/12 07:06:10;;;;;;;10.88;5.55;;;;;;;22.33;66.44;94038.88;5063060;28;20357;-75
2022/08/12 07:08:36;;;;;;;12.43;5.88;;;;;;;22.35;66.70;94035.78;5062938;28;20017;-75
2022/08/12 07:11:04;;;;;;;13.93;4.20;;;;;;;22.42;67.07;94043.94;5062818;28;20264;-75
2022/08/12 07:13:42;;;;;;;10.48;4.32;;;;;;;22.55;66.18;94036.19;5062919;28;20252;-75
2022/08/12 07:16:12;;;;;;;9.82;4.38;;;;;;;22.67;65.38;94029.63;5062762;28;20287;-75
2022/08/12 07:18:38;;;;;;;13.45;3.78;;;;;;;22.80;64.33;94037.03;5062541;28;20127;-75
2022/08/12 07:21:04;;;;;;;7.80;3.13;;;;;;;22.86;63.73;94044.78;5062805;28;20308;-75
2022/08/12 07:23:34;;;;;;;6.55;3.97;;;;;;;22.89;63.64;94044.00;5062609;28;20074;-75
2022/08/12 07:26:01;;;;;;;6.18;3.30;;;;;;;22.91;62.41;94038.97;5062600;28;20227;-75
2022/08/12 07:28:29;;;;;;;9.63;3.75;;;;;;;22.97;61.85;94032.75;5062647;28;20379;-75
2022/08/12 07:30:56;;;;;;;8.98;3.70;;;;;;;23.09;61.75;94036.28;5062575;28;20020;-75
2022/08/12 07:33:27;;;;;;;6.25;4.45;;;;;;;23.26;62.05;94030.06;5062424;28;20103;-75
2022/08/12 07:35:54;;;;;;;11.40;5.20;;;;;;;23.42;62.03;94022.25;5062523;28;20099;-75
2022/08/12 07:38:23;;;;;;;8.18;3.55;;;;;;;23.57;60.82;94027.69;5062473;28;20036;-75
2022/08/12 07:41:10;;;;;;;8.45;3.70;;;;;;;23.70;60.21;94026.09;5062624;28;20033;-75
2022/08/12 07:43:42;;;;;;;4.80;2.90;;;;;;;23.82;58.62;94020.28;5062450;28;20239;-76
2022/08/12 07:46:10;;;;;;;;;;;;;;;23.96;56.45;94024.13;5062949;28;20092;-75
2022/08/12 07:48:40;;;;;;;5.72;2.45;;;;;;;24.06;56.07;94023.31;5062706;28;19904;-76
2022/08/12 07:51:06;;;;;;;3.85;2.83;;;;;;;24.22;53.57;94018.19;5062597;28;20021;-75
2022/08/12 07:53:32;;;;;;;9.02;2.97;;;;;;;24.35;53.51;94010.31;5062645;28;20024;-75
2022/08/12 07:55:57;;;;;;;11.63;3.28;;;;;;;24.57;53.80;94016.47;5062722;28;20032;-76
2022/08/12 07:58:24;;;;;;;10.40;3.83;;;;;;;24.76;52.91;94012.44;5062266;28;20037;-76
2022/08/12 08:00:51;;;;;;;8.43;3.30;;;;;;;24.84;52.99;94015.91;5062305;28;20021;-76
2022/08/12 08:03:17;;;;;;;8.18;3.28;;;;;;;24.93;52.03;94018.16;5062542;28;20025;-76
2022/08/12 08:05:45;;;;;;;10.00;3.63;;;;;;;24.94;51.54;94020.50;5062562;28;20059;-75
2022/08/12 08:08:25;;;;;;;5.60;3.22;;;;;;;25.00;50.77;94016.16;5066268;28;20335;-76
2022/08/12 08:12:52;;;;;;;6.55;3.22;;;;;;;25.05;50.30;94017.69;5066310;28;20017;-75
2022/08/12 08:13:39;;;;;;;10.57;3.00;;;;;;;25.16;49.05;94014.88;5066119;28;20254;-75
2022/08/12 08:16:06;;;;;;;5.57;2.35;;;;;;;25.14;48.74;94014.50;5066086;28;20123;-76
2022/08/12 08:18:32;;;;;;;6.15;2.30;;;;;;;25.16;48.38;94017.63;5066310;28;20063;-76
2022/08/12 08:20:57;;;;;;;9.35;2.80;;;;;;;25.16;47.86;94012.16;5065980;28;20197;-76
2022/08/12 08:24:13;;;;;;;4.43;2.63;;;;;;;25.20;47.81;94016.41;5065996;28;20025;-76
2022/08/12 08:26:09;;;;;;;3.97;2.45;;;;;;;25.18;47.16;94010.56;5065901;28;20041;-75
2022/08/12 08:28:35;;;;;;;3.35;2.00;;;;;;;25.26;46.41;94011.31;5066028;28;20324;-75
2022/08/12 08:31:01;;;;;;;2.20;1.70;;;;;;;25.20;46.46;94008.22;5065935;28;20088;-75
2022/08/12 08:33:26;;;;;;;3.25;1.95;;;;;;;25.25;46.22;94001.56;5065866;28;20326;-75
2022/08/12 08:35:52;;;;;;;3.00;1.88;;;;;;;25.34;45.34;94001.91;5065827;28;20227;-75
2022/08/12 08:38:18;;;;;;;2.97;2.08;;;;;;;25.30;45.82;94011.25;5065730;28;20220;-76
2022/08/12 08:43:31;;;;;;;5.65;2.33;;;;;;;25.06;45.50;94002.88;5065644;28;20024;-76
2022/08/12 08:45:59;;;;;;;4.82;2.85;;;;;;;25.06;46.45;93993.94;5065784;28;20029;-75
2022/08/12 08:48:25;;;;;;;6.22;2.42;;;;;;;25.01;45.93;93987.75;5065641;28;20024;-76
2022/08/12 08:50:51;;;;;;;15.57;2.47;;;;;;;24.96;45.18;93996.34;5065485;28;20017;-75
2022/08/12 08:53:17;;;;;;;3.65;2.33;;;;;;;25.05;45.16;93995.88;5065610;28;20017;-75
2022/08/12 08:55:43;;;;;;;2.72;1.73;;;;;;;25.10;43.49;93997.41;5065682;28;20219;-75
2022/08/12 08:58:09;;;;;;;3.65;1.85;;;;;;;25.11;44.87;93999.72;5064267;28;20036;-75
2022/08/12 09:00:38;;;;;;;2.78;1.88;;;;;;;25.21;43.87;93992.66;5065415;28;20021;-76
2022/08/12 09:03:04;;;;;;;4.97;2.33;;;;;;;25.33;41.92;93983.97;5065462;28;20017;-75
2022/08/12 09:05:29;;;;;;;17.15;2.80;;;;;;;25.37;41.39;94000.31;5065400;28;20365;-76
2022/08/12 09:07:58;;;;;;;10.18;2.10;;;;;;;25.37;40.20;93990.16;5064929;28;20349;-76
2022/08/12 09:10:24;;;;;;;3.58;1.92;;;;;;;25.43;41.18;93998.69;5065436;28;20032;-75
2022/08/12 09:15:37;;;;;;;4.05;1.92;;;;;;;25.50;39.74;93984.19;5065122;28;20086;-76
2022/08/12 09:18:06;;;;;;;4.35;1.65;;;;;;;25.45;40.25;93984.66;5064149;28;20017;-75
2022/08/12 09:20:33;;;;;;;5.65;1.98;;;;;;;25.51;40.32;93983.03;5065062;28;20043;-76
2022/08/12 09:23:01;;;;;;;8.77;2.22;;;;;;;25.49;40.67;93986.16;5064963;28;20021;-76
2022/08/12 09:25:30;;;;;;;6.00;2.30;;;;;;;25.53;40.94;93992.34;5064972;28;20108;-76
2022/08/12 09:27:57;;;;;;;3.97;2.22;;;;;;;25.55;39.68;93983.75;5064938;28;20024;-76
2022/08/12 09:30:23;;;;;;;2.63;2.03;;;;;;;25.56;38.91;93990.75;5064808;28;20215;-76
2022/08/12 09:32:49;;;;;;;6.35;2.40;;;;;;;25.62;38.70;93994.59;5064820;28;20311;-76
2022/08/12 09:35:20;;;;;;;4.82;2.47;;;;;;;25.71;37.64;93991.41;5065002;28;20048;-76
2022/08/12 09:37:47;;;;;;;4.05;2.20;;;;;;;25.79;38.88;93979.97;5064698;28;20323;-76
2022/08/12 09:40:13;;;;;;;8.15;2.40;;;;;;;25.85;38.97;93985.78;5064751;28;20021;-76
2022/08/12 09:45:23;;;;;;;4.97;2.25;;;;;;;26.08;39.30;93987.84;5064496;28;20376;-76
2022/08/12 09:47:49;;;;;;;3.72;2.35;;;;;;;26.27;39.40;93982.94;5064648;28;20009;-76
2022/08/12 09:50:16;;;;;;;3.05;2.00;;;;;;;26.29;38.82;93984.06;5064629;28;20025;-76
2022/08/12 09:52:44;;;;;;;3.45;2.17;;;;;;;26.29;38.80;93975.09;5064290;28;20200;-76
2022/08/12 09:55:13;;;;;;;4.97;2.10;;;;;;;26.27;39.35;93977.47;5064441;28;20051;-76
2022/08/12 09:57:38;;;;;;;7.55;2.20;;;;;;;26.30;39.92;93963.00;5064374;28;20036;-76
2022/08/12 10:00:08;;;;;;;4.82;2.50;;;;;;;26.33;39.25;93965.66;5063062;28;20024;-76
2022/08/12 10:02:37;;;;;;;6.03;2.65;;;;;;;26.29;39.10;93972.38;5064373;28;20062;-76
2022/08/12 10:05:08;;;;;;;7.88;2.22;;;;;;;26.32;38.62;93968.84;5064373;28;20023;-76
2022/08/12 10:07:34;;;;;;;5.88;2.40;;;;;;;26.33;39.62;93968.41;5064191;28;20084;-76
2022/08/12 10:09:59;;;;;;;4.15;2.55;;;;;;;26.30;39.66;93966.50;5064022;28;20024;-76
2022/08/12 10:15:11;;;;;;;4.05;2.50;;;;;;;26.49;39.82;93956.88;5064027;28;20040;-76
2022/08/12 10:17:36;;;;;;;4.00;2.40;;;;;;;26.60;39.69;93964.94;5063900;28;20238;-76
2022/08/12 10:20:05;;;;;;;3.78;1.90;;;;;;;26.77;39.22;93954.94;5063789;28;20057;-75
2022/08/12 10:22:30;;;;;;;5.43;2.72;;;;;;;26.90;39.49;93953.13;5063862;28;20389;-75
2022/08/12 10:30:44;;;;;;;3.50;2.53;;;;;;;27.16;38.81;93942.56;5081794;28;20032;-76
2022/08/12 10:33:09;;;;;;;4.00;2.60;;;;;;;27.26;39.49;93951.81;5081466;28;20040;-76
2022/08/12 10:35:35;;;;;;;3.45;2.47;;;;;;;27.28;36.82;93944.72;5073175;28;20052;-75
2022/08/12 10:38:01;;;;;;;5.97;2.53;;;;;;;27.30;37.58;93944.31;5063543;28;20227;-75
2022/08/12 10:40:30;;;;;;;3.28;2.25;;;;;;;27.30;38.59;93941.56;5063589;28;20047;-76
2022/08/12 10:45:41;;;;;;;6.25;2.60;;;;;;;27.20;38.59;93954.22;5063409;28;20067;-76
2022/08/12 10:48:06;;;;;;;3.25;2.25;;;;;;;27.15;37.80;93947.28;5063113;28;20059;-75
2022/08/12 10:50:32;;;;;;;4.03;2.20;;;;;;;26.99;39.31;93944.44;5063432;28;20053;-75
2022/08/12 10:52:58;;;;;;;4.60;2.13;;;;;;;26.70;36.93;93952.28;5063187;28;20031;-76
2022/08/12 10:55:24;;;;;;;2.90;2.30;;;;;;;26.43;38.40;93933.91;5063067;28;20029;-75
2022/08/12 10:57:51;;;;;;;5.10;3.63;;;;;;;26.34;40.94;93939.16;5062964;28;20343;-76
2022/08/12 11:00:16;;;;;;;5.97;2.72;;;;;;;26.28;42.79;93935.31;5063439;28;20043;-76
2022/08/12 11:02:49;;;;;;;4.75;2.40;;;;;;;26.27;41.52;93925.56;5063119;28;20048;-76
2022/08/12 11:05:16;;;;;;;8.85;2.53;;;;;;;26.32;40.09;93925.88;5063371;28;20037;-75
2022/08/12 11:07:41;;;;;;;5.35;2.38;;;;;;;26.40;40.20;93926.56;5062987;28;20013;-76
2022/08/12 11:10:07;;;;;;;4.60;2.50;;;;;;;26.58;40.24;93924.38;5062717;28;20203;-76
2022/08/12 11:12:36;;;;;;;4.47;2.33;;;;;;;26.65;38.94;93933.63;5062679;28;20025;-76
2022/08/12 11:15:07;;;;;;;3.22;2.33;;;;;;;26.54;39.41;93929.09;5062969;28;20059;-77
2022/08/12 11:17:32;;;;;;;3.00;2.25;;;;;;;26.44;39.50;93927.28;5062630;28;20032;-76
2022/08/12 11:19:58;;;;;;;12.45;4.35;;;;;;;26.37;40.47;93928.13;5062460;28;20357;-76
2022/08/12 11:22:23;;;;;;;4.00;2.40;;;;;;;26.28;40.56;93924.41;5062500;28;20025;-76
2022/08/12 11:24:48;;;;;;;3.28;2.10;;;;;;;26.15;39.31;93922.19;5062545;28;20275;-76
2022/08/12 11:27:14;;;;;;;6.60;2.33;;;;;;;26.16;41.15;93921.03;5062631;28;20052;-76
2022/08/12 11:29:39;;;;;;;2.78;2.10;;;;;;;26.22;41.58;93924.84;5062677;28;20044;-76
2022/08/12 11:32:05;;;;;;;4.07;2.25;;;;;;;26.28;39.87;93919.69;5062696;28;20350;-76
2022/08/12 11:34:30;;;;;;;5.22;2.60;;;;;;;26.32;40.36;93911.47;5062557;28;20021;-75
2022/08/12 11:37:06;;;;;;;4.70;2.42;;;;;;;26.43;41.76;93907.38;5062470;28;20029;-75
2022/08/12 11:39:31;;;;;;;5.63;2.40;;;;;;;26.56;43.46;93906.78;5062677;28;20048;-75
2022/08/12 11:41:57;;;;;;;10.05;2.58;;;;;;;26.72;41.98;93915.16;5061979;28;20025;-75
2022/08/12 11:44:23;;;;;;;2.92;2.35;;;;;;;26.72;40.28;93914.38;5062437;28;20267;-75
2022/08/12 11:46:49;;;;;;;3.42;2.47;;;;;;;26.81;41.46;93920.09;5062773;28;20031;-75
2022/08/12 11:49:16;;;;;;;3.40;2.15;;;;;;;26.83;40.63;93915.00;5062472;28;20029;-75
2022/08/12 11:51:42;;;;;;;4.38;2.58;;;;;;;26.79;41.03;93917.00;5062172;28;20029;-75
2022/08/12 11:54:07;;;;;;;3.58;2.30;;;;;;;26.81;41.87;93911.91;5062459;28;20273;-75
2022/08/12 11:56:33;;;;;;;3.45;2.35;;;;;;;26.63;41.60;93900.47;5062405;28;20021;-76
2022/08/12 11:58:59;;;;;;;5.40;2.60;;;;;;;26.56;42.06;93906.78;5062318;28;20025;-75
2022/08/12 12:01:24;;;;;;;5.00;2.42;;;;;;;26.59;42.59;93903.25;5062316;28;20052;-75
2022/08/12 12:03:50;;;;;;;3.15;2.10;;;;;;;26.59;41.81;93898.56;5062711;28;20028;-75
2022/08/12 12:06:19;;;;;;;3.42;2.58;;;;;;;26.64;40.34;93902.00;5062290;28;20032;-75
2022/08/12 12:08:45;;;;;;;3.65;2.30;;;;;;;26.68;40.58;93903.50;5062197;28;20200;-76
2022/08/12 12:11:11;;;;;;;5.13;2.60;;;;;;;26.67;41.21;93901.19;5062165;28;20100;-76
2022/08/12 12:13:36;;;;;;;4.80;2.13;;;;;;;26.75;42.42;93899.88;5062386;28;20025;-75
2022/08/12 12:16:02;;;;;;;3.00;2.10;;;;;;;26.79;40.16;93903.34;5062297;28;20354;-76
2022/08/12 12:18:30;;;;;;;4.90;2.55;;;;;;;26.91;40.88;93899.22;5061963;28;20033;-75
2022/08/12 12:20:58;;;;;;;2.88;2.20;;;;;;;27.01;39.09;93890.84;5061736;28;20025;-76
2022/08/12 12:23:24;;;;;;;4.18;2.58;;;;;;;27.14;37.97;93884.75;5062152;28;20055;-76
2022/08/12 12:25:49;;;;;;;4.50;2.35;;;;;;;27.23;40.17;93887.72;5062138;28;20020;-76
2022/08/12 12:28:15;;;;;;;4.18;2.17;;;;;;;27.34;37.80;93888.31;5062014;28;20039;-75
2022/08/12 12:30:41;;;;;;;4.53;2.50;;;;;;;27.48;37.20;93897.44;5062087;28;20033;-76
2022/08/12 12:33:10;;;;;;;3.72;2.33;;;;;;;27.57;36.99;93887.47;5062021;28;20063;-75
2022/08/12 12:35:36;;;;;;;3.67;2.63;;;;;;;27.58;36.72;93885.53;5061978;28;20020;-76
2022/08/12 12:38:04;;;;;;;6.30;2.50;;;;;;;27.63;36.17;93876.81;5061989;28;20035;-75
2022/08/12 12:40:31;;;;;;;6.15;2.60;;;;;;;27.68;35.49;93872.78;5061599;28;20021;-76
2022/08/12 12:42:57;;;;;;;4.32;2.38;;;;;;;27.83;35.18;93881.50;5061759;28;20029;-76
2022/08/12 12:45:23;;;;;;;3.88;2.63;;;;;;;27.88;36.34;93873.56;5062123;28;20021;-75
2022/08/12 12:48:00;;;;;;;5.57;2.95;;;;;;;27.90;36.26;93864.94;5062145;28;20084;-76
2022/08/12 12:50:29;;;;;;;6.15;2.53;;;;;;;27.88;35.83;93867.34;5061792;28;20228;-75
2022/08/12 12:52:54;;;;;;;16.80;3.17;;;;;;;27.89;36.07;93871.63;5062080;28;20320;-75
2022/08/12 12:55:21;;;;;;;4.13;2.47;;;;;;;28.01;36.64;93865.50;5065778;28;20052;-75
2022/08/12 12:57:47;;;;;;;9.40;3.15;;;;;;;28.23;36.39;93871.28;5065173;28;20025;-75
2022/08/12 13:00:15;;;;;;;7.78;3.17;;;;;;;28.49;35.60;93860.47;5065435;28;20301;-75
2022/08/12 13:02:52;;;;;;;7.32;3.00;;;;;;;28.88;35.10;93865.03;5065437;28;20048;-75
2022/08/12 13:05:28;;;;;;;4.32;2.95;;;;;;;29.17;34.58;93847.88;5065174;28;20025;-76
2022/08/12 13:08:02;;;;;;;5.97;2.45;;;;;;;29.63;34.80;93856.78;5065351;28;20334;-76
2022/08/12 13:10:30;;;;;;;5.10;2.72;;;;;;;30.03;31.14;93842.69;5065344;28;20200;-76
2022/08/12 13:12:56;;;;;;;9.18;2.47;;;;;;;30.02;32.78;93843.13;5065036;28;20020;-76
2022/08/12 13:15:22;;;;;;;5.25;2.90;;;;;;;30.02;33.59;93846.66;5065116;28;20351;-76
2022/08/12 13:17:54;;;;;;;7.03;3.35;;;;;;;30.09;33.01;93829.97;5064960;28;20032;-76